Time;durP1;ratioP1;P1;durP2;ratioP2;P2;SDS_P1;SDS_P2;PMS_P1;PMS_P2;Temp;Humidity;BMP_temperature;BMP_pressure;BME280_temperature;BME280_humidity;BME280_pressure;Samples;Min_cycle;Max_cycle;Signal;HPM_P1;HPM_P2
2023/06/30 00:01:14;;;;;;;6.67;4.50;;;24.30;96.80;;;;;;5017300;28;20191;-68
2023/06/30 00:03:39;;;;;;;5.13;4.60;;;24.20;96.90;;;;;;5016734;28;20202;-68
2023/06/30 00:06:05;;;;;;;4.80;4.37;;;24.20;97.00;;;;;;5016703;28;20631;-68
2023/06/30 00:08:32;;;;;;;6.70;4.70;;;24.20;97.00;;;;;;5016720;28;20638;-68
2023/06/30 00:10:58;;;;;;;5.00;4.40;;;24.20;97.40;;;;;;5016624;28;20210;-68
2023/06/30 00:13:23;;;;;;;6.03;5.10;;;24.10;97.20;;;;;;5016554;28;20446;-68
2023/06/30 00:15:49;;;;;;;5.67;4.90;;;24.10;97.30;;;;;;5016714;28;20593;-69
2023/06/30 00:18:15;;;;;;;6.00;5.17;;;24.10;97.40;;;;;;5016721;28;20176;-67
2023/06/30 00:20:40;;;;;;;6.73;4.73;;;24.10;97.60;;;;;;5017199;28;20213;-68
2023/06/30 00:23:08;;;;;;;6.00;4.27;;;23.90;97.80;;;;;;5016425;28;20184;-67
2023/06/30 00:25:34;;;;;;;6.20;4.07;;;23.80;98.10;;;;;;5017123;28;20213;-68
2023/06/30 00:28:00;;;;;;;5.27;3.90;;;23.80;98.30;;;;;;5015874;28;20446;-68
2023/06/30 00:30:25;;;;;;;5.10;4.47;;;23.80;98.40;;;;;;5016315;28;20164;-68
2023/06/30 00:32:51;;;;;;;4.53;4.13;;;23.70;98.20;;;;;;5016189;28;20191;-68
2023/06/30 00:35:16;;;;;;;5.57;4.30;;;23.70;98.30;;;;;;5016246;28;20168;-68
2023/06/30 00:37:42;;;;;;;4.20;3.57;;;23.70;98.20;;;;;;5016247;28;20164;-68
2023/06/30 00:40:08;;;;;;;4.50;4.10;;;23.70;98.40;;;;;;5016128;28;20174;-68
2023/06/30 00:42:33;;;;;;;6.60;3.90;;;23.70;98.40;;;;;;5015532;28;20583;-67
2023/06/30 00:44:59;;;;;;;4.90;4.50;;;23.60;98.50;;;;;;5016078;28;20592;-68
2023/06/30 00:47:26;;;;;;;5.87;4.20;;;23.50;98.70;;;;;;5016299;28;20176;-68
2023/06/30 00:49:52;;;;;;;4.33;3.70;;;23.50;99.00;;;;;;5016203;28;20411;-68
2023/06/30 00:52:18;;;;;;;5.03;3.80;;;23.30;99.60;;;;;;5015807;28;20415;-68
2023/06/30 00:54:43;;;;;;;4.43;3.83;;;23.20;99.60;;;;;;5015875;28;20433;-68
2023/06/30 00:57:09;;;;;;;4.57;4.17;;;23.10;99.70;;;;;;5016056;28;20172;-68
2023/06/30 00:59:35;;;;;;;4.90;4.03;;;23.00;99.90;;;;;;5015282;28;20176;-68
2023/06/30 01:02:12;;;;;;;4.90;4.30;;;23.00;99.90;;;;;;5015754;28;20195;-68
2023/06/30 01:04:59;;;;;;;4.60;4.20;;;23.00;99.90;;;;;;5015716;28;20184;-68
2023/06/30 01:07:53;;;;;;;4.40;4.00;;;22.90;99.90;;;;;;5016021;28;20388;-68
2023/06/30 01:10:25;;;;;;;4.77;3.90;;;22.90;99.90;;;;;;5015770;28;20410;-68
2023/06/30 01:12:51;;;;;;;5.40;4.17;;;22.80;99.90;;;;;;5015050;28;20427;-68
2023/06/30 01:15:17;;;;;;;5.60;3.80;;;22.80;99.90;;;;;;5015730;28;20395;-68
2023/06/30 01:17:51;;;;;;;5.80;3.60;;;22.80;99.90;;;;;;5014308;28;20407;-68
2023/06/30 01:20:19;;;;;;;4.50;4.10;;;22.80;99.90;;;;;;5015323;28;20398;-68
2023/06/30 01:22:51;;;;;;;4.80;4.07;;;22.70;99.90;;;;;;5015510;28;20431;-67
2023/06/30 01:25:26;;;;;;;4.43;4.03;;;22.60;99.90;;;;;;5015767;28;20383;-68
2023/06/30 01:27:54;;;;;;;4.83;4.33;;;22.60;99.90;;;;;;5015100;28;20399;-67
2023/06/30 01:30:20;;;;;;;6.20;3.93;;;22.50;99.90;;;;;;5017739;28;20513;-68
2023/06/30 01:32:46;;;;;;;4.67;4.30;;;22.40;99.90;;;;;;5015133;28;20465;-68
2023/06/30 01:35:12;;;;;;;4.83;3.70;;;22.40;99.90;;;;;;5015171;28;20409;-68
2023/06/30 01:37:38;;;;;;;6.07;4.47;;;22.40;99.90;;;;;;5015185;28;20751;-68
2023/06/30 01:40:05;;;;;;;4.13;3.77;;;22.30;99.90;;;;;;5014029;28;20405;-68
2023/06/30 01:42:31;;;;;;;4.57;4.07;;;22.30;99.90;;;;;;5014570;28;20681;-67
2023/06/30 01:44:59;;;;;;;5.67;3.83;;;22.30;99.90;;;;;;5014611;28;20422;-68
2023/06/30 01:47:25;;;;;;;5.90;4.53;;;22.20;99.90;;;;;;5015167;28;20399;-68
2023/06/30 01:49:51;;;;;;;4.73;4.23;;;22.10;99.90;;;;;;5015150;28;20407;-68
2023/06/30 01:52:17;;;;;;;4.47;4.07;;;22.10;99.90;;;;;;5014744;28;20226;-68
2023/06/30 01:54:43;;;;;;;6.23;4.03;;;22.10;99.90;;;;;;5014692;28;20191;-67
2023/06/30 01:57:08;;;;;;;4.77;3.83;;;22.10;99.90;;;;;;5014862;28;20500;-67
2023/06/30 01:59:34;;;;;;;4.80;4.00;;;22.10;99.90;;;;;;5013429;28;20196;-68
2023/06/30 02:01:59;;;;;;;4.20;3.90;;;22.10;99.90;;;;;;5014534;28;20191;-68
2023/06/30 02:04:25;;;;;;;4.20;3.90;;;22.10;99.90;;;;;;5014254;28;20211;-68
2023/06/30 02:06:50;;;;;;;4.80;4.40;;;22.10;99.90;;;;;;5014903;28;20221;-68
2023/06/30 02:09:16;;;;;;;4.77;4.03;;;22.10;99.90;;;;;;5015061;28;20255;-69
2023/06/30 02:11:42;;;;;;;5.30;4.80;;;22.10;99.90;;;;;;5014656;28;20242;-68
2023/06/30 02:14:07;;;;;;;8.10;4.00;;;22.10;99.90;;;;;;5013878;28;20705;-68
2023/06/30 02:16:33;;;;;;;4.70;4.03;;;22.10;99.90;;;;;;5014619;28;20742;-68
2023/06/30 02:18:58;;;;;;;4.70;4.20;;;22.00;99.90;;;;;;5013203;28;20302;-68
2023/06/30 02:21:25;;;;;;;4.83;4.43;;;21.90;99.90;;;;;;5014452;28;20651;-68
2023/06/30 02:23:51;;;;;;;5.97;4.10;;;21.90;99.90;;;;;;5014448;28;20192;-68
2023/06/30 02:26:16;;;;;;;5.13;4.20;;;21.90;99.90;;;;;;5014407;28;20414;-68
2023/06/30 02:28:42;;;;;;;6.57;4.60;;;21.90;99.90;;;;;;5013622;28;20172;-67
2023/06/30 02:31:08;;;;;;;4.63;4.13;;;22.00;99.90;;;;;;5014116;28;20263;-68
2023/06/30 02:33:33;;;;;;;6.87;4.70;;;21.90;99.90;;;;;;5014319;28;20214;-68
2023/06/30 02:35:59;;;;;;;5.83;4.37;;;21.80;99.90;;;;;;5014426;28;20262;-68
2023/06/30 02:38:24;;;;;;;6.60;4.77;;;21.80;99.90;;;;;;5014187;28;20179;-67
2023/06/30 02:40:50;;;;;;;5.10;4.37;;;21.80;99.90;;;;;;5014311;28;20287;-67
2023/06/30 02:43:15;;;;;;;6.37;4.93;;;21.80;99.90;;;;;;5013820;28;20196;-67
2023/06/30 02:45:41;;;;;;;5.73;5.13;;;21.80;99.90;;;;;;5014198;28;20218;-68
2023/06/30 02:48:07;;;;;;;5.20;4.80;;;21.90;99.90;;;;;;5014943;28;20199;-68
2023/06/30 02:50:32;;;;;;;5.40;4.90;;;21.80;99.90;;;;;;5015850;28;20168;-68
2023/06/30 02:52:59;;;;;;;8.70;5.20;;;21.90;99.90;;;;;;5015315;28;20608;-68
2023/06/30 02:55:24;;;;;;;5.00;4.60;;;21.80;99.90;;;;;;5014285;28;20164;-68
2023/06/30 02:57:50;;;;;;;6.43;5.50;;;21.80;99.90;;;;;;5012741;28;20542;-67
2023/06/30 03:00:16;;;;;;;6.23;5.57;;;21.80;99.90;;;;;;5013455;28;20168;-67
2023/06/30 03:02:42;;;;;;;5.50;5.00;;;21.80;99.90;;;;;;5012326;28;20622;-68
2023/06/30 03:05:08;;;;;;;6.80;5.90;;;21.80;99.90;;;;;;5013800;28;20406;-68
2023/06/30 03:07:34;;;;;;;5.30;4.73;;;21.70;99.90;;;;;;5013870;28;20176;-67
2023/06/30 03:09:59;;;;;;;5.23;4.83;;;21.70;99.90;;;;;;5013555;28;20399;-67
2023/06/30 03:12:25;;;;;;;6.00;5.23;;;21.90;99.90;;;;;;5013441;28;20996;-67
2023/06/30 03:14:51;;;;;;;6.10;5.50;;;21.90;99.90;;;;;;5012402;28;20164;-68
2023/06/30 03:17:16;;;;;;;7.47;6.33;;;21.90;99.90;;;;;;5012995;28;20167;-67
2023/06/30 03:19:42;;;;;;;6.43;5.63;;;21.80;99.90;;;;;;5013606;28;20661;-68
2023/06/30 03:22:07;;;;;;;5.90;5.10;;;21.80;99.90;;;;;;5012377;28;20725;-68
2023/06/30 03:24:33;;;;;;;7.67;5.80;;;21.70;99.90;;;;;;5013253;28;20215;-68
2023/06/30 03:26:58;;;;;;;6.63;5.70;;;21.70;99.90;;;;;;5013385;28;20164;-68
2023/06/30 03:29:24;;;;;;;6.57;5.97;;;21.70;99.90;;;;;;5015201;28;20208;-68
2023/06/30 03:31:49;;;;;;;6.37;5.57;;;21.80;99.90;;;;;;5013394;28;20171;-68
2023/06/30 03:34:15;;;;;;;6.03;5.47;;;21.90;99.90;;;;;;5013493;28;20658;-68
2023/06/30 03:36:41;;;;;;;6.37;5.77;;;21.70;99.90;;;;;;5012924;28;20529;-67
2023/06/30 03:39:06;;;;;;;6.40;5.80;;;21.60;99.90;;;;;;5013348;28;20195;-66
2023/06/30 03:41:32;;;;;;;6.80;6.20;;;21.60;99.90;;;;;;5013044;28;20192;-67
2023/06/30 03:43:58;;;;;;;6.83;6.13;;;21.70;99.90;;;;;;5012638;28;20730;-67
2023/06/30 03:46:23;;;;;;;6.87;6.27;;;21.70;99.90;;;;;;5012983;28;20176;-67
2023/06/30 03:48:49;;;;;;;5.70;5.30;;;21.60;99.90;;;;;;5013823;28;20183;-67
2023/06/30 03:51:15;;;;;;;7.23;5.73;;;21.60;99.90;;;;;;5013222;28;20190;-67
2023/06/30 03:53:43;;;;;;;8.17;6.13;;;21.70;99.90;;;;;;5012887;28;20208;-67
2023/06/30 03:56:09;;;;;;;5.87;5.37;;;21.70;99.90;;;;;;5013293;28;20172;-68
2023/06/30 03:58:35;;;;;;;7.03;5.30;;;21.70;99.90;;;;;;5011829;28;20514;-68
2023/06/30 04:01:01;;;;;;;10.40;6.10;;;21.70;99.90;;;;;;5012873;28;20529;-68
2023/06/30 04:03:26;;;;;;;5.37;4.97;;;21.70;99.90;;;;;;5012752;28;20744;-68
2023/06/30 04:05:53;;;;;;;7.13;5.73;;;21.80;99.90;;;;;;5013031;28;20243;-68
2023/06/30 04:08:19;;;;;;;5.90;5.40;;;21.80;99.90;;;;;;5012009;28;20175;-68
2023/06/30 04:10:45;;;;;;;9.57;6.40;;;21.70;99.90;;;;;;5012854;28;20407;-68
2023/06/30 04:13:10;;;;;;;5.87;5.37;;;21.70;99.90;;;;;;5012582;28;20191;-68
2023/06/30 04:15:36;;;;;;;6.10;5.50;;;21.80;99.90;;;;;;5013138;28;20168;-68
2023/06/30 04:18:02;;;;;;;6.97;6.27;;;21.90;99.90;;;;;;5013064;28;20195;-68
2023/06/30 04:20:28;;;;;;;5.80;5.30;;;22.00;99.90;;;;;;5012919;28;20179;-68
2023/06/30 04:22:54;;;;;;;11.30;5.97;;;22.00;99.90;;;;;;5012676;28;20438;-68
2023/06/30 04:25:19;;;;;;;5.53;5.03;;;22.00;99.90;;;;;;5013042;28;20206;-68
2023/06/30 04:27:45;;;;;;;5.83;5.33;;;22.10;99.90;;;;;;5015471;28;20402;-68
2023/06/30 04:30:11;;;;;;;6.10;5.60;;;22.10;99.90;;;;;;5016083;28;20164;-68
2023/06/30 04:32:38;;;;;;;7.43;5.40;;;22.10;99.90;;;;;;5016573;28;20230;-68
2023/06/30 04:35:03;;;;;;;6.60;5.30;;;22.20;99.90;;;;;;5016891;28;20534;-68
2023/06/30 04:37:29;;;;;;;6.53;5.40;;;22.30;99.90;;;;;;5016857;28;20433;-68
2023/06/30 04:39:56;;;;;;;6.40;5.67;;;22.40;99.90;;;;;;5016232;28;20175;-68
2023/06/30 04:42:22;;;;;;;6.33;5.47;;;22.50;99.90;;;;;;5016540;28;20202;-68
2023/06/30 04:44:47;;;;;;;6.50;5.90;;;22.50;99.90;;;;;;5015566;28;20403;-68
2023/06/30 04:47:15;;;;;;;5.97;5.03;;;22.60;99.90;;;;;;5016220;28;20663;-68
2023/06/30 04:49:41;;;;;;;5.93;5.20;;;22.60;99.90;;;;;;5016392;28;20172;-68
2023/06/30 04:52:06;;;;;;;6.23;5.63;;;22.70;99.90;;;;;;5015884;28;20425;-68
2023/06/30 04:54:32;;;;;;;6.93;6.23;;;22.70;99.90;;;;;;5015932;28;20227;-68
2023/06/30 04:56:58;;;;;;;6.70;6.00;;;22.70;99.90;;;;;;5016175;28;20714;-68
2023/06/30 04:59:23;;;;;;;6.30;5.80;;;22.80;99.90;;;;;;5015492;28;20183;-68
2023/06/30 05:01:49;;;;;;;7.60;6.00;;;22.80;99.90;;;;;;5016153;28;20192;-68
2023/06/30 05:04:15;;;;;;;10.20;6.60;;;22.80;99.90;;;;;;5015741;28;20180;-68
2023/06/30 05:06:41;;;;;;;7.70;7.10;;;22.60;99.90;;;;;;5014499;28;20160;-68
2023/06/30 05:09:06;;;;;;;7.17;6.43;;;22.60;99.90;;;;;;5014363;28;20406;-68
2023/06/30 05:11:32;;;;;;;7.53;6.83;;;22.80;99.90;;;;;;5015881;28;20219;-69
2023/06/30 05:13:58;;;;;;;9.70;8.30;;;22.80;99.90;;;;;;5015059;28;20686;-67
2023/06/30 05:16:23;;;;;;;8.97;8.07;;;22.80;99.90;;;;;;5015675;28;20180;-67
2023/06/30 05:18:49;;;;;;;10.90;9.30;;;22.50;99.90;;;;;;5015507;28;20199;-67
2023/06/30 05:21:14;;;;;;;9.63;8.37;;;22.30;99.90;;;;;;5015264;28;20183;-67
2023/06/30 05:23:40;;;;;;;9.10;8.27;;;22.20;99.90;;;;;;5015388;28;20658;-67
2023/06/30 05:26:06;;;;;;;10.40;9.07;;;21.90;99.90;;;;;;5015318;28;20164;-67
2023/06/30 05:28:32;;;;;;;10.67;8.50;;;21.80;99.90;;;;;;5014327;28;20676;-67
2023/06/30 05:31:40;;;;;;;;;;;;;;;;;;;;;
2023/06/30 05:34:06;;;;;;;9.63;8.47;;;21.70;99.90;;;;;;4993824;28;20605;-68
2023/06/30 05:36:31;;;;;;;10.60;8.90;;;21.70;99.90;;;;;;5017784;28;20497;-68
2023/06/30 05:38:57;;;;;;;10.83;9.93;;;21.50;99.90;;;;;;5014138;28;20203;-68
2023/06/30 05:41:23;;;;;;;9.07;8.37;;;21.50;99.90;;;;;;5014543;28;20257;-68
2023/06/30 05:43:48;;;;;;;10.77;9.77;;;21.50;99.90;;;;;;5014445;28;20961;-68
2023/06/30 05:46:14;;;;;;;10.57;9.57;;;21.50;99.90;;;;;;5014793;28;20218;-68
2023/06/30 05:48:39;;;;;;;10.70;9.73;;;21.30;99.90;;;;;;5015082;28;20234;-69
2023/06/30 05:51:05;;;;;;;11.53;10.20;;;21.20;99.90;;;;;;5014779;28;20571;-69
2023/06/30 05:53:30;;;;;;;10.53;9.50;;;21.20;99.90;;;;;;5038925;22;20366;-69
2023/06/30 05:55:56;;;;;;;11.50;10.40;;;21.10;99.90;;;;;;5015026;28;20503;-69
2023/06/30 05:58:24;;;;;;;11.40;9.73;;;20.90;99.90;;;;;;5014265;28;20173;-68
2023/06/30 06:00:50;;;;;;;13.67;11.93;;;20.90;99.90;;;;;;5014540;28;20250;-69
2023/06/30 06:03:15;;;;;;;15.57;11.60;;;20.90;99.90;;;;;;5006487;28;20531;-69
2023/06/30 06:05:41;;;;;;;10.20;9.30;;;20.90;99.90;;;;;;4995351;28;20243;-69
2023/06/30 06:08:06;;;;;;;11.83;10.90;;;20.80;99.90;;;;;;4995160;28;20165;-69
2023/06/30 06:10:32;;;;;;;11.53;10.53;;;20.70;99.90;;;;;;4994823;28;20176;-69
2023/06/30 06:12:58;;;;;;;12.47;11.30;;;20.80;99.90;;;;;;4994880;28;20195;-69
2023/06/30 06:15:23;;;;;;;12.73;11.43;;;20.90;99.90;;;;;;4994899;28;20169;-68
2023/06/30 06:17:49;;;;;;;10.97;9.83;;;21.00;99.90;;;;;;4994800;28;20172;-69
2023/06/30 06:20:14;;;;;;;16.33;11.37;;;21.10;99.90;;;;;;4995154;28;20176;-69
2023/06/30 06:22:40;;;;;;;12.60;11.40;;;21.20;99.90;;;;;;4994671;28;20268;-69
2023/06/30 06:25:07;;;;;;;12.70;11.40;;;21.20;99.90;;;;;;4994738;28;20679;-68
2023/06/30 06:27:35;;;;;;;11.30;10.10;;;21.10;99.90;;;;;;4995850;28;20621;-69
2023/06/30 06:30:02;;;;;;;13.17;11.87;;;21.10;99.90;;;;;;5014185;28;20462;-68
2023/06/30 06:32:28;;;;;;;12.30;11.10;;;21.00;99.90;;;;;;5014626;28;20435;-69
2023/06/30 06:34:53;;;;;;;17.70;13.80;;;20.90;99.90;;;;;;5014071;28;20430;-68
2023/06/30 06:37:19;;;;;;;13.80;12.43;;;20.80;99.90;;;;;;5014579;28;20172;-68
2023/06/30 06:39:45;;;;;;;12.70;11.50;;;20.70;99.90;;;;;;5014078;28;20164;-69
2023/06/30 06:42:10;;;;;;;15.33;13.80;;;20.80;99.90;;;;;;5013808;28;20632;-69
2023/06/30 06:44:36;;;;;;;12.40;11.20;;;20.90;99.90;;;;;;5013372;28;20187;-69
2023/06/30 06:47:39;;;;;;;13.63;12.30;;;20.90;99.90;;;;;;5013778;28;20271;-68
2023/06/30 06:50:05;;;;;;;13.47;12.27;;;20.90;99.90;;;;;;5013567;28;20247;-67
2023/06/30 06:52:30;;;;;;;14.00;12.60;;;21.10;99.90;;;;;;5013640;28;20490;-68
2023/06/30 06:54:56;;;;;;;15.70;14.20;;;21.20;99.90;;;;;;5013147;28;20196;-69
2023/06/30 06:57:21;;;;;;;13.00;11.80;;;21.30;99.90;;;;;;5005030;28;20185;-69
2023/06/30 06:59:47;;;;;;;14.50;13.07;;;21.20;99.90;;;;;;5002844;28;20171;-69
2023/06/30 07:02:12;;;;;;;14.47;13.07;;;21.20;99.90;;;;;;5004708;28;20197;-70
2023/06/30 07:04:38;;;;;;;11.07;9.70;;;21.40;99.90;;;;;;5002819;28;20191;-70
2023/06/30 07:07:04;;;;;;;12.90;11.70;;;21.60;99.90;;;;;;4996985;28;20173;-69
2023/06/30 07:09:31;;;;;;;13.10;11.90;;;21.80;99.90;;;;;;4994832;28;20283;-69
2023/06/30 07:11:56;;;;;;;11.07;10.07;;;22.00;99.90;;;;;;4994234;28;20176;-69
2023/06/30 07:14:23;;;;;;;11.47;10.40;;;22.20;99.90;;;;;;4993294;28;20432;-69
2023/06/30 07:16:49;;;;;;;12.47;11.37;;;22.30;99.90;;;;;;4994058;28;20227;-69
2023/06/30 07:19:15;;;;;;;11.60;10.37;;;22.30;99.90;;;;;;4993862;28;20494;-69
2023/06/30 07:21:40;;;;;;;11.77;10.67;;;22.30;99.90;;;;;;4993705;28;20547;-69
2023/06/30 07:24:06;;;;;;;15.83;12.70;;;22.40;99.90;;;;;;4993662;28;20628;-69
2023/06/30 07:26:33;;;;;;;9.63;8.90;;;22.50;99.90;;;;;;4993601;28;20172;-69
2023/06/30 07:28:59;;;;;;;11.40;10.30;;;22.60;99.90;;;;;;5007563;28;20525;-68
2023/06/30 07:31:24;;;;;;;11.43;10.33;;;22.60;99.90;;;;;;5010116;28;20495;-69
2023/06/30 07:33:50;;;;;;;12.30;11.00;;;22.70;99.90;;;;;;5004524;28;20251;-70
2023/06/30 07:36:15;;;;;;;13.30;12.07;;;22.60;99.90;;;;;;5007249;28;20211;-69
2023/06/30 07:38:41;;;;;;;12.30;11.10;;;22.50;99.90;;;;;;5002191;28;20172;-69
2023/06/30 07:41:06;;;;;;;13.03;11.73;;;22.40;99.90;;;;;;5004650;28;20199;-68
2023/06/30 07:43:32;;;;;;;14.43;13.13;;;22.30;99.90;;;;;;5003423;28;20675;-69
2023/06/30 07:45:57;;;;;;;14.67;12.77;;;22.10;99.90;;;;;;4993933;28;20536;-68
2023/06/30 07:48:23;;;;;;;13.40;12.07;;;22.00;99.90;;;;;;4993652;28;20628;-68
2023/06/30 07:50:49;;;;;;;13.07;11.73;;;22.10;99.90;;;;;;4993986;28;20604;-69
2023/06/30 07:53:14;;;;;;;14.90;13.30;;;22.00;99.90;;;;;;4996581;28;20287;-70
2023/06/30 07:55:40;;;;;;;15.70;13.80;;;22.00;99.90;;;;;;5003643;28;20223;-69
2023/06/30 07:58:05;;;;;;;14.13;12.10;;;21.70;99.90;;;;;;5002869;28;20181;-68
2023/06/30 08:00:31;;;;;;;13.90;12.47;;;21.80;99.90;;;;;;5002004;28;20230;-69
2023/06/30 08:02:56;;;;;;;15.33;13.73;;;21.70;99.90;;;;;;5007449;28;20613;-69
2023/06/30 08:05:22;;;;;;;15.50;14.00;;;21.80;99.90;;;;;;5009131;28;20642;-68
2023/06/30 08:07:47;;;;;;;16.17;13.47;;;21.90;99.90;;;;;;5016862;28;20204;-68
2023/06/30 08:10:13;;;;;;;17.13;15.07;;;21.80;99.90;;;;;;5016474;28;20200;-68
2023/06/30 08:12:39;;;;;;;16.20;14.60;;;21.70;99.90;;;;;;5015311;28;20176;-68
2023/06/30 08:15:05;;;;;;;17.43;14.80;;;21.70;99.90;;;;;;5016273;28;20457;-68
2023/06/30 08:17:30;;;;;;;17.63;13.80;;;21.80;99.90;;;;;;5017490;28;20263;-68
2023/06/30 08:19:56;;;;;;;18.20;16.37;;;21.50;99.90;;;;;;5016486;28;20567;-69
2023/06/30 08:22:22;;;;;;;18.17;15.77;;;21.50;99.90;;;;;;5016568;28;20675;-68
2023/06/30 08:24:47;;;;;;;18.27;15.50;;;21.40;99.90;;;;;;5016304;28;20275;-68
2023/06/30 08:27:13;;;;;;;18.53;15.97;;;21.50;99.90;;;;;;5016385;28;20172;-69
2023/06/30 08:29:39;;;;;;;16.13;13.73;;;21.40;99.90;;;;;;5015543;28;20172;-69
2023/06/30 08:32:05;;;;;;;20.80;15.30;;;21.50;99.90;;;;;;5016335;28;20410;-68
2023/06/30 08:34:31;;;;;;;16.67;14.80;;;21.60;99.90;;;;;;5016235;28;20651;-68
2023/06/30 08:36:57;;;;;;;17.33;15.27;;;21.30;99.90;;;;;;5016293;28;20407;-68
2023/06/30 08:39:23;;;;;;;20.80;15.53;;;21.10;99.90;;;;;;5016130;28;20318;-69
2023/06/30 08:41:53;;;;;;;20.67;16.27;;;21.20;99.90;;;;;;5016042;28;20222;-69
2023/06/30 08:44:23;;;;;;;20.03;17.00;;;21.40;99.90;;;;;;5015940;28;20846;-69
2023/06/30 08:46:53;;;;;;;23.30;18.13;;;21.20;99.90;;;;;;5016033;28;20410;-69
2023/06/30 08:49:23;;;;;;;20.03;16.73;;;21.00;99.90;;;;;;5016281;28;20446;-69
2023/06/30 08:51:56;;;;;;;19.47;17.37;;;20.70;99.90;;;;;;5015967;28;20438;-69
2023/06/30 08:54:28;;;;;;;18.20;16.17;;;20.70;99.90;;;;;;5015743;28;20530;-68
2023/06/30 08:56:56;;;;;;;21.20;17.13;;;20.60;99.90;;;;;;5016254;28;20395;-69
2023/06/30 08:59:22;;;;;;;17.87;15.70;;;20.40;99.90;;;;;;5014680;28;20431;-69
2023/06/30 09:01:48;;;;;;;20.07;16.60;;;20.40;99.90;;;;;;5015802;28;20863;-69
2023/06/30 09:04:15;;;;;;;23.77;17.87;;;20.30;99.90;;;;;;5015969;28;20191;-68
2023/06/30 09:06:48;;;;;;;21.60;18.50;;;20.20;99.90;;;;;;5016052;28;20465;-68
2023/06/30 09:09:31;;;;;;;26.00;17.90;;;20.50;99.90;;;;;;5015772;28;20403;-68
2023/06/30 09:11:56;;;;;;;26.70;16.87;;;20.50;99.90;;;;;;5015843;28;20418;-68
2023/06/30 09:14:23;;;;;;;19.73;17.00;;;20.30;99.90;;;;;;5014045;28;20442;-69
2023/06/30 09:16:49;;;;;;;20.17;17.00;;;20.50;99.90;;;;;;5015534;28;20539;-69
2023/06/30 09:19:15;;;;;;;19.90;15.77;;;20.50;99.90;;;;;;5015754;28;20407;-68
2023/06/30 09:21:41;;;;;;;16.53;14.50;;;20.70;99.90;;;;;;5015640;28;20490;-68
2023/06/30 09:24:06;;;;;;;18.63;16.63;;;20.90;99.90;;;;;;5015414;28;20437;-69
2023/06/30 09:26:34;;;;;;;16.90;15.10;;;21.10;99.90;;;;;;5015684;28;20168;-68
2023/06/30 09:29:00;;;;;;;17.67;15.77;;;21.10;99.90;;;;;;5014674;28;20677;-69
2023/06/30 09:31:30;;;;;;;17.00;14.57;;;21.10;99.90;;;;;;5015205;28;20446;-69
2023/06/30 09:34:10;;;;;;;21.37;17.03;;;21.10;99.90;;;;;;5015413;28;20795;-70
2023/06/30 09:36:37;;;;;;;16.67;14.77;;;21.30;99.90;;;;;;5015093;28;20411;-69
2023/06/30 09:39:06;;;;;;;19.20;17.23;;;21.50;99.90;;;;;;5014954;28;20461;-71
2023/06/30 09:41:31;;;;;;;15.83;14.20;;;21.60;99.90;;;;;;5015607;28;20446;-69
2023/06/30 09:43:57;;;;;;;16.93;15.20;;;21.80;99.90;;;;;;5014734;28;21036;-69
2023/06/30 09:46:23;;;;;;;16.07;14.37;;;21.90;99.90;;;;;;5014749;28;20172;-69
2023/06/30 09:48:54;;;;;;;15.07;13.27;;;22.00;99.90;;;;;;5014942;28;20438;-70
2023/06/30 09:51:23;;;;;;;15.90;14.30;;;22.10;99.90;;;;;;5013648;28;20255;-69
2023/06/30 09:53:52;;;;;;;15.93;13.37;;;22.20;99.90;;;;;;5014573;28;20450;-70
2023/06/30 09:56:22;;;;;;;15.70;14.00;;;22.10;99.90;;;;;;5014801;28;20415;-70
2023/06/30 09:58:48;;;;;;;17.63;14.33;;;22.10;99.90;;;;;;5014497;28;20506;-70
2023/06/30 10:01:19;;;;;;;15.70;14.20;;;22.10;99.90;;;;;;5014344;28;20541;-70
2023/06/30 10:03:54;;;;;;;17.53;14.67;;;22.20;99.90;;;;;;5015078;28;20426;-70
2023/06/30 10:06:23;;;;;;;17.57;15.63;;;22.20;99.90;;;;;;5013669;28;20438;-70
2023/06/30 10:08:51;;;;;;;17.23;15.30;;;22.10;99.90;;;;;;5014911;28;20407;-70
2023/06/30 10:11:20;;;;;;;15.50;13.80;;;22.30;99.90;;;;;;5014821;28;20419;-71
2023/06/30 10:13:47;;;;;;;15.97;14.27;;;22.40;99.90;;;;;;5014201;28;20565;-70
2023/06/30 10:16:14;;;;;;;13.83;12.40;;;22.50;99.90;;;;;;5014221;28;20465;-70
2023/06/30 10:18:45;;;;;;;15.97;13.70;;;22.10;99.90;;;;;;5014962;28;20453;-70
2023/06/30 10:21:11;;;;;;;12.87;11.57;;;22.20;99.90;;;;;;5014862;28;20501;-70
2023/06/30 10:23:39;;;;;;;14.40;12.90;;;21.90;99.90;;;;;;5014116;28;20537;-70
2023/06/30 10:26:06;;;;;;;14.37;12.87;;;21.90;99.90;;;;;;5014256;28;20461;-68
2023/06/30 10:28:38;;;;;;;14.40;12.87;;;21.70;99.90;;;;;;5029188;28;20422;-69
2023/06/30 10:31:03;;;;;;;16.13;14.53;;;21.50;99.90;;;;;;5014052;28;20407;-70
2023/06/30 10:33:29;;;;;;;16.87;14.93;;;21.70;99.90;;;;;;5014223;28;20423;-69
2023/06/30 10:35:57;;;;;;;17.57;15.87;;;22.00;99.90;;;;;;5014528;28;20180;-70
2023/06/30 10:38:23;;;;;;;16.00;14.23;;;22.20;99.90;;;;;;5014343;28;20172;-70
2023/06/30 10:40:49;;;;;;;14.83;12.90;;;22.40;99.90;;;;;;5013879;28;20407;-69
2023/06/30 10:43:15;;;;;;;15.00;13.50;;;22.20;99.90;;;;;;5013965;28;20435;-70
2023/06/30 10:46:03;;;;;;;14.57;13.17;;;22.20;99.90;;;;;;5013765;28;20195;-67
2023/06/30 10:48:28;;;;;;;15.50;14.00;;;22.40;99.90;;;;;;5013890;28;20171;-69
2023/06/30 10:50:55;;;;;;;15.50;14.07;;;22.10;99.90;;;;;;5013959;28;20417;-70
2023/06/30 10:53:21;;;;;;;15.47;13.80;;;22.30;99.90;;;;;;5013809;28;20691;-70
2023/06/30 10:55:47;;;;;;;16.10;14.40;;;22.50;99.90;;;;;;5014379;28;20450;-70
2023/06/30 10:58:23;;;;;;;16.40;14.70;;;22.70;99.90;;;;;;5012519;28;20179;-69
2023/06/30 11:01:04;;;;;;;15.83;14.20;;;22.80;99.90;;;;;;5013585;28;20801;-69
2023/06/30 11:03:56;;;;;;;15.33;13.83;;;22.60;99.90;;;;;;5013857;28;20537;-69
2023/06/30 11:06:22;;;;;;;15.17;13.67;;;22.80;99.90;;;;;;5013574;28;20407;-69
2023/06/30 11:09:01;;;;;;;18.43;16.57;;;23.00;99.90;;;;;;5013508;28;20411;-69
2023/06/30 11:11:29;;;;;;;17.20;15.40;;;22.80;99.90;;;;;;5013634;28;20417;-70
2023/06/30 11:14:07;;;;;;;15.97;14.47;;;22.80;99.90;;;;;;5013073;28;20438;-70
2023/06/30 11:17:02;;;;;;;17.60;15.80;;;22.70;99.90;;;;;;5013089;28;20406;-69
2023/06/30 11:19:27;;;;;;;18.13;16.27;;;22.60;99.90;;;;;;5013703;28;20399;-69
2023/06/30 11:22:22;;;;;;;20.03;17.27;;;22.70;99.90;;;;;;5013346;28;20820;-67
2023/06/30 11:24:48;;;;;;;19.43;17.47;;;22.80;99.90;;;;;;5013518;28;20196;-69
2023/06/30 11:27:15;;;;;;;20.37;18.17;;;22.90;99.90;;;;;;5013471;28;20413;-69
2023/06/30 11:29:41;;;;;;;21.00;18.97;;;22.80;99.90;;;;;;5012778;28;20176;-70
2023/06/30 11:32:07;;;;;;;24.10;20.50;;;22.80;99.90;;;;;;5012741;28;20430;-69
2023/06/30 11:34:33;;;;;;;24.23;21.37;;;22.60;99.90;;;;;;5012864;28;20824;-70
2023/06/30 11:37:04;;;;;;;22.43;20.33;;;22.40;99.90;;;;;;5012462;28;20770;-68
2023/06/30 11:39:30;;;;;;;23.27;20.90;;;22.30;99.90;;;;;;5013553;28;20750;-70
2023/06/30 11:41:56;;;;;;;23.17;20.90;;;22.50;99.90;;;;;;5013372;28;20454;-70
2023/06/30 11:44:21;;;;;;;26.80;24.10;;;22.60;99.90;;;;;;5012345;28;20437;-70
2023/06/30 11:46:47;;;;;;;24.40;21.90;;;22.60;99.90;;;;;;5012970;28;20200;-69
2023/06/30 11:49:13;;;;;;;23.17;20.87;;;22.80;99.90;;;;;;5013042;28;20172;-68
2023/06/30 11:51:38;;;;;;;24.87;22.17;;;22.90;99.90;;;;;;5013032;28;20546;-69
2023/06/30 11:54:05;;;;;;;24.43;21.80;;;22.80;99.90;;;;;;5013572;28;20202;-69
2023/06/30 11:56:31;;;;;;;27.73;24.83;;;22.90;99.90;;;;;;5013313;28;20176;-69
2023/06/30 11:58:56;;;;;;;25.60;23.00;;;22.90;99.90;;;;;;5012894;28;20469;-70
2023/06/30 12:01:22;;;;;;;24.37;21.83;;;22.80;99.90;;;;;;5012728;28;20231;-69
2023/06/30 12:04:07;;;;;;;26.70;23.13;;;22.60;99.90;;;;;;5013133;28;20642;-70
2023/06/30 12:06:35;;;;;;;26.23;22.50;;;22.80;99.90;;;;;;5013213;28;20438;-70
2023/06/30 12:09:02;;;;;;;24.93;22.43;;;22.70;99.90;;;;;;5013213;28;20779;-69
2023/06/30 12:11:31;;;;;;;25.70;22.10;;;22.70;99.90;;;;;;5012805;28;20928;-69
2023/06/30 12:13:57;;;;;;;27.67;24.83;;;22.80;99.90;;;;;;5012702;28;20422;-69
2023/06/30 12:16:26;;;;;;;26.73;23.83;;;22.90;99.90;;;;;;5012634;28;20422;-69
2023/06/30 12:18:53;;;;;;;26.40;23.60;;;23.10;99.90;;;;;;5013043;28;20550;-69
2023/06/30 12:21:19;;;;;;;27.83;25.03;;;23.30;99.90;;;;;;5013002;28;21001;-69
2023/06/30 12:23:45;;;;;;;27.33;24.53;;;23.10;99.90;;;;;;5012987;28;20630;-69
2023/06/30 12:26:12;;;;;;;27.20;24.40;;;23.20;99.90;;;;;;5012751;28;20164;-69
2023/06/30 12:28:38;;;;;;;26.57;23.90;;;23.20;99.90;;;;;;5012401;28;20438;-69
2023/06/30 12:31:03;;;;;;;25.10;22.63;;;23.50;99.90;;;;;;5012633;28;20502;-69
2023/06/30 12:33:29;;;;;;;30.00;24.00;;;23.70;99.90;;;;;;5013162;28;20194;-69
2023/06/30 12:35:55;;;;;;;26.20;22.83;;;23.90;99.90;;;;;;5012624;28;20172;-69
2023/06/30 12:38:20;;;;;;;27.00;24.30;;;24.00;99.90;;;;;;5012708;28;20168;-69